Time;durP1;ratioP1;P1;durP2;ratioP2;P2;SDS_P1;SDS_P2;PMS_P1;PMS_P2;Temp;Humidity;BMP_temperature;BMP_pressure;BME280_temperature;BME280_humidity;BME280_pressure;Samples;Min_cycle;Max_cycle;Signal;HPM_P1;HPM_P2
2023/06/26 00:00:05;;;;;;;6.37;5.80;;;19.30;99.90;;;;;;5098092;28;20389;-86
2023/06/26 00:02:32;;;;;;;7.47;6.10;;;19.20;99.90;;;;;;5100848;28;20380;-86
2023/06/26 00:04:58;;;;;;;7.00;6.40;;;19.20;99.90;;;;;;5107562;27;20478;-86
2023/06/26 00:07:23;;;;;;;6.87;6.33;;;19.20;99.90;;;;;;5134830;27;20461;-86
2023/06/26 00:09:49;;;;;;;6.53;5.82;;;19.20;99.90;;;;;;5116867;27;20393;-85
2023/06/26 00:12:14;;;;;;;6.77;6.20;;;19.20;99.90;;;;;;5105003;28;20388;-86
2023/06/26 00:14:40;;;;;;;6.60;6.00;;;19.10;99.90;;;;;;5103750;27;20395;-86
2023/06/26 00:17:05;;;;;;;6.70;6.10;;;19.00;99.90;;;;;;5141718;27;20422;-86
2023/06/26 00:19:31;;;;;;;6.43;5.90;;;19.00;99.90;;;;;;5140845;22;20449;-85
2023/06/26 00:21:56;;;;;;;6.90;6.20;;;19.00;99.90;;;;;;5077428;28;20394;-85
2023/06/26 00:24:22;;;;;;;7.27;6.57;;;19.00;99.90;;;;;;5095622;28;20370;-85
2023/06/26 00:26:48;;;;;;;6.30;5.70;;;19.00;99.90;;;;;;5076503;28;20868;-85
2023/06/26 00:29:13;;;;;;;7.00;6.40;;;18.90;99.90;;;;;;5096813;28;20384;-85
2023/06/26 00:31:40;;;;;;;7.10;6.50;;;18.80;99.90;;;;;;5073321;28;20905;-85
2023/06/26 00:34:05;;;;;;;6.53;6.00;;;18.80;99.90;;;;;;5074942;28;20482;-85
2023/06/26 00:36:31;;;;;;;6.30;5.80;;;18.80;99.90;;;;;;5055603;28;20943;-85
2023/06/26 00:38:57;;;;;;;6.47;5.87;;;18.80;99.90;;;;;;5077203;28;20778;-85
2023/06/26 00:41:22;;;;;;;6.88;5.75;;;18.90;99.90;;;;;;5079199;28;20397;-85
2023/06/26 00:43:48;;;;;;;6.70;6.10;;;19.10;99.90;;;;;;5077940;28;20374;-85
2023/06/26 00:46:14;;;;;;;6.75;5.90;;;19.10;99.90;;;;;;5095571;28;20421;-86
2023/06/26 00:48:42;;;;;;;7.07;6.38;;;19.10;99.90;;;;;;5095331;28;20393;-85
2023/06/26 00:51:08;;;;;;;6.60;6.00;;;19.10;99.90;;;;;;5077191;28;20421;-85
2023/06/26 00:53:34;;;;;;;6.37;5.80;;;18.90;99.90;;;;;;5074879;28;20936;-85
2023/06/26 00:56:01;;;;;;;6.80;6.00;;;18.80;99.90;;;;;;5074632;28;20388;-85
2023/06/26 00:58:27;;;;;;;6.72;6.00;;;18.80;99.90;;;;;;5077916;28;20455;-85
2023/06/26 01:00:53;;;;;;;6.90;5.83;;;18.80;99.90;;;;;;5077867;28;20411;-85
2023/06/26 01:03:23;;;;;;;6.50;5.90;;;18.90;99.90;;;;;;5079794;28;20399;-85
2023/06/26 01:05:54;;;;;;;7.60;6.10;;;18.90;99.90;;;;;;5073443;28;20425;-85
2023/06/26 01:08:20;;;;;;;6.28;5.68;;;18.90;99.90;;;;;;5099463;28;20382;-85
2023/06/26 01:10:46;;;;;;;8.60;5.78;;;19.00;99.90;;;;;;5098232;28;20375;-85
2023/06/26 01:13:16;;;;;;;7.00;6.30;;;19.00;99.90;;;;;;5079110;28;20449;-85
2023/06/26 01:15:41;;;;;;;6.53;5.90;;;19.10;99.90;;;;;;5070307;28;20398;-85
2023/06/26 01:18:08;;;;;;;7.28;6.07;;;19.00;99.90;;;;;;5080928;28;20374;-85
2023/06/26 01:20:41;;;;;;;7.60;6.22;;;19.00;99.90;;;;;;5080451;28;20481;-85
2023/06/26 01:23:24;;;;;;;6.65;6.05;;;19.00;99.90;;;;;;5080606;28;21017;-86
2023/06/26 01:26:07;;;;;;;6.75;6.15;;;19.00;99.90;;;;;;5076782;28;20419;-86
2023/06/26 01:28:35;;;;;;;5.93;5.43;;;18.90;99.90;;;;;;5076994;28;20405;-85
2023/06/26 01:31:02;;;;;;;6.53;5.75;;;18.80;99.90;;;;;;5058507;28;20391;-85
2023/06/26 01:33:28;;;;;;;7.40;6.20;;;18.70;99.90;;;;;;5078226;28;20417;-85
2023/06/26 01:35:53;;;;;;;6.82;6.22;;;18.70;99.90;;;;;;5077379;28;20469;-85
2023/06/26 01:38:22;;;;;;;6.97;6.37;;;18.60;99.90;;;;;;5078715;28;20417;-85
2023/06/26 01:40:49;;;;;;;6.57;5.97;;;18.60;99.90;;;;;;5097536;28;20886;-85
2023/06/26 01:43:47;;;;;;;7.00;6.40;;;18.50;99.90;;;;;;5078716;28;20550;-85
2023/06/26 01:46:25;;;;;;;6.63;5.93;;;18.50;99.90;;;;;;5025201;28;20396;-84
2023/06/26 01:49:16;;;;;;;6.72;6.13;;;18.50;99.90;;;;;;5068199;28;20397;-84
2023/06/26 01:51:46;;;;;;;7.47;6.20;;;18.50;99.90;;;;;;5079361;28;20389;-84
2023/06/26 01:54:18;;;;;;;6.60;5.90;;;18.50;99.90;;;;;;5078619;28;20402;-84
2023/06/26 01:56:45;;;;;;;6.80;6.10;;;18.40;99.90;;;;;;5078113;28;20482;-85
2023/06/26 01:59:13;;;;;;;6.72;6.03;;;18.30;99.90;;;;;;5083876;28;20391;-84
2023/06/26 02:01:39;;;;;;;6.55;5.95;;;18.30;99.90;;;;;;5074132;28;20399;-85
2023/06/26 02:04:04;;;;;;;6.60;6.00;;;18.30;99.90;;;;;;5116494;28;20400;-83
2023/06/26 02:06:30;;;;;;;7.07;6.47;;;18.30;99.90;;;;;;5106810;28;20394;-85
2023/06/26 02:08:56;;;;;;;6.80;6.20;;;18.30;99.90;;;;;;5075201;28;20756;-84
2023/06/26 02:11:22;;;;;;;7.00;6.30;;;18.20;99.90;;;;;;5071917;28;20388;-85
2023/06/26 02:13:48;;;;;;;7.85;6.10;;;18.10;99.90;;;;;;5098546;28;20780;-85
2023/06/26 02:16:13;;;;;;;6.97;5.82;;;18.10;99.90;;;;;;5073992;28;20388;-84
2023/06/26 02:18:39;;;;;;;6.40;5.80;;;18.30;99.90;;;;;;5082971;28;20390;-86
2023/06/26 02:21:05;;;;;;;6.88;6.28;;;18.40;99.90;;;;;;5077032;28;20774;-84
2023/06/26 02:23:31;;;;;;;7.18;6.50;;;18.30;99.90;;;;;;5059350;28;20753;-84
2023/06/26 02:25:56;;;;;;;6.35;5.78;;;18.20;99.90;;;;;;5066532;28;20489;-85
2023/06/26 02:28:22;;;;;;;7.70;6.00;;;18.20;99.90;;;;;;5089632;28;20524;-85
2023/06/26 02:30:47;;;;;;;6.87;6.27;;;18.20;99.90;;;;;;5111221;28;20389;-85
2023/06/26 02:33:13;;;;;;;6.57;5.97;;;18.20;99.90;;;;;;5106242;28;20420;-85
2023/06/26 02:35:38;;;;;;;7.23;6.10;;;18.20;99.90;;;;;;5102676;28;20400;-84
2023/06/26 02:38:04;;;;;;;6.47;5.88;;;18.20;99.90;;;;;;5087636;28;20382;-85
2023/06/26 02:40:29;;;;;;;6.55;5.88;;;18.10;99.90;;;;;;5089642;28;20388;-85
2023/06/26 02:42:55;;;;;;;7.57;6.40;;;18.10;99.90;;;;;;5088506;28;20481;-86
2023/06/26 02:45:20;;;;;;;6.32;5.72;;;18.00;99.90;;;;;;5089604;28;20402;-84
2023/06/26 02:47:46;;;;;;;6.37;5.77;;;19.50;99.90;;;;;;5067689;28;20398;-86
2023/06/26 02:50:12;;;;;;;7.07;6.10;;;18.00;99.90;;;;;;5082628;28;20406;-85
2023/06/26 02:52:37;;;;;;;6.97;6.35;;;18.00;99.90;;;;;;5088068;28;20402;-85
2023/06/26 02:55:04;;;;;;;6.50;5.80;;;18.00;99.90;;;;;;5084607;28;20442;-85
2023/06/26 02:57:30;;;;;;;7.00;6.40;;;18.00;99.90;;;;;;5083791;28;20382;-85
2023/06/26 02:59:55;;;;;;;6.97;6.28;;;18.00;99.90;;;;;;5093463;28;20391;-84
2023/06/26 03:02:21;;;;;;;6.37;5.77;;;18.00;99.90;;;;;;5072501;28;20390;-85
2023/06/26 03:04:46;;;;;;;6.10;5.60;;;17.90;99.90;;;;;;5103221;28;20384;-85
2023/06/26 03:07:12;;;;;;;6.20;5.60;;;17.80;99.90;;;;;;5084716;28;20400;-85
2023/06/26 03:09:37;;;;;;;6.60;6.00;;;17.90;99.90;;;;;;5084239;28;20733;-85
2023/06/26 03:12:03;;;;;;;6.47;5.88;;;17.80;99.90;;;;;;5096597;28;20469;-85
2023/06/26 03:14:29;;;;;;;7.50;6.80;;;17.80;99.90;;;;;;5102932;28;20409;-86
2023/06/26 03:16:57;;;;;;;6.80;6.20;;;17.70;99.90;;;;;;5068822;28;20383;-86
2023/06/26 03:19:23;;;;;;;7.10;6.40;;;17.90;99.90;;;;;;5082074;28;20735;-85
2023/06/26 03:21:49;;;;;;;7.10;6.50;;;17.80;99.90;;;;;;5082316;28;20387;-86
2023/06/26 03:24:14;;;;;;;6.53;5.93;;;17.80;99.90;;;;;;5082172;28;20384;-85
2023/06/26 03:26:40;;;;;;;7.07;6.20;;;17.80;99.90;;;;;;5082223;28;20423;-85
2023/06/26 03:29:05;;;;;;;7.03;6.43;;;17.80;99.90;;;;;;5081873;28;20395;-84
2023/06/26 03:31:31;;;;;;;7.40;6.40;;;17.90;99.90;;;;;;5081376;28;20380;-84
2023/06/26 03:33:56;;;;;;;6.75;6.15;;;17.80;99.90;;;;;;5064540;28;20774;-84
2023/06/26 03:36:22;;;;;;;7.33;6.63;;;18.00;99.90;;;;;;5088671;28;20501;-85
2023/06/26 03:38:47;;;;;;;6.75;6.15;;;18.00;99.90;;;;;;5102700;28;20374;-85
2023/06/26 03:41:13;;;;;;;6.20;5.60;;;17.90;99.90;;;;;;5084762;28;20382;-84
2023/06/26 03:43:38;;;;;;;6.75;6.05;;;18.00;99.90;;;;;;5083694;28;20468;-85
2023/06/26 03:46:04;;;;;;;6.70;6.00;;;17.90;99.90;;;;;;5080326;28;20395;-86
2023/06/26 03:48:29;;;;;;;7.47;6.77;;;17.90;99.90;;;;;;5082759;28;20491;-85
2023/06/26 03:50:55;;;;;;;6.80;6.10;;;17.90;99.90;;;;;;5082471;28;20392;-84
2023/06/26 03:53:21;;;;;;;6.40;5.80;;;17.90;99.90;;;;;;5093927;28;20483;-84
2023/06/26 03:55:46;;;;;;;7.30;6.60;;;18.00;99.90;;;;;;5095987;28;20391;-84
2023/06/26 03:58:12;;;;;;;6.22;5.72;;;18.00;99.90;;;;;;5086973;28;20434;-85
2023/06/26 04:00:37;;;;;;;6.70;6.00;;;18.00;99.90;;;;;;5056673;28;20423;-84
2023/06/26 04:03:04;;;;;;;6.93;6.22;;;18.00;99.90;;;;;;5080439;28;20387;-84
2023/06/26 04:05:29;;;;;;;6.35;5.85;;;18.10;99.90;;;;;;5061123;28;20392;-85
2023/06/26 04:07:55;;;;;;;6.50;6.00;;;18.10;99.90;;;;;;5081881;28;20741;-85
2023/06/26 04:10:21;;;;;;;6.85;6.00;;;18.50;99.90;;;;;;5102005;28;20382;-85
2023/06/26 04:12:47;;;;;;;6.55;5.90;;;18.10;99.90;;;;;;5070264;28;20403;-85
2023/06/26 04:15:13;;;;;;;6.80;6.20;;;18.10;99.90;;;;;;5082927;28;20888;-85
2023/06/26 04:17:39;;;;;;;6.77;6.00;;;18.10;99.90;;;;;;5096670;28;20397;-84
2023/06/26 04:20:08;;;;;;;6.78;6.07;;;18.10;99.90;;;;;;5119240;28;20439;-84
2023/06/26 04:22:34;;;;;;;6.97;6.10;;;18.20;99.90;;;;;;5102033;28;20397;-84
2023/06/26 04:25:03;;;;;;;6.30;5.70;;;18.20;99.90;;;;;;5087727;28;20467;-85
2023/06/26 04:27:28;;;;;;;7.05;6.40;;;18.20;99.90;;;;;;5096913;28;20380;-86
2023/06/26 04:29:54;;;;;;;6.22;5.72;;;18.20;99.90;;;;;;5091139;28;20416;-85
2023/06/26 04:32:19;;;;;;;6.70;6.10;;;18.10;99.90;;;;;;5115726;28;20408;-85
2023/06/26 04:34:45;;;;;;;6.57;5.97;;;18.30;99.90;;;;;;5095330;28;20410;-85
2023/06/26 04:37:10;;;;;;;6.70;6.10;;;19.00;99.90;;;;;;5085669;28;20386;-85
2023/06/26 04:39:37;;;;;;;7.60;6.25;;;18.20;99.90;;;;;;5092736;28;20391;-85
2023/06/26 04:42:03;;;;;;;8.67;6.50;;;18.20;99.90;;;;;;5064151;28;20459;-85
2023/06/26 04:44:29;;;;;;;6.93;6.32;;;18.10;99.90;;;;;;5083097;28;20384;-86
2023/06/26 04:46:54;;;;;;;7.28;6.68;;;18.40;99.90;;;;;;5064897;28;20434;-86
2023/06/26 04:49:20;;;;;;;8.00;7.20;;;18.30;99.90;;;;;;5064880;28;20406;-85
2023/06/26 04:51:45;;;;;;;7.30;6.40;;;18.40;99.90;;;;;;5064749;28;20395;-85
2023/06/26 04:54:11;;;;;;;8.37;6.50;;;18.50;99.90;;;;;;5082469;28;20400;-85
2023/06/26 04:56:39;;;;;;;7.50;6.80;;;18.50;99.90;;;;;;5094104;28;20489;-85
2023/06/26 04:59:05;;;;;;;7.03;6.32;;;18.60;99.90;;;;;;5085528;28;20429;-85
2023/06/26 05:01:32;;;;;;;7.13;6.43;;;18.60;99.90;;;;;;5104137;28;20786;-86
2023/06/26 05:03:58;;;;;;;7.00;6.40;;;18.50;99.90;;;;;;5086419;28;20390;-85
2023/06/26 05:06:23;;;;;;;7.30;6.70;;;18.60;99.90;;;;;;5070348;28;20387;-84
2023/06/26 05:08:49;;;;;;;6.80;6.20;;;18.70;99.90;;;;;;5058959;28;20966;-84
2023/06/26 05:11:14;;;;;;;6.70;6.10;;;18.80;99.90;;;;;;5068850;28;20967;-84
2023/06/26 05:13:40;;;;;;;6.80;6.20;;;18.70;99.90;;;;;;5071605;28;20427;-84
2023/06/26 05:16:08;;;;;;;7.40;6.70;;;18.80;99.90;;;;;;5059551;28;20476;-84
2023/06/26 05:18:34;;;;;;;7.53;6.75;;;18.90;99.90;;;;;;5080360;28;20894;-84
2023/06/26 05:21:00;;;;;;;7.05;6.45;;;18.90;99.90;;;;;;5059353;28;20459;-84
2023/06/26 05:23:30;;;;;;;6.90;6.30;;;19.00;99.90;;;;;;5077688;28;20383;-84
2023/06/26 05:25:56;;;;;;;6.83;6.20;;;19.10;99.90;;;;;;5077851;28;20406;-84
2023/06/26 05:28:24;;;;;;;7.17;6.50;;;19.10;99.90;;;;;;5082596;28;20414;-84
2023/06/26 05:30:50;;;;;;;6.73;6.13;;;19.20;99.90;;;;;;5082979;28;20395;-84
2023/06/26 05:33:18;;;;;;;6.70;6.10;;;19.30;99.90;;;;;;5065176;28;20411;-85
2023/06/26 05:35:48;;;;;;;7.50;6.70;;;19.40;99.90;;;;;;5098099;28;20379;-84
2023/06/26 05:38:14;;;;;;;8.60;6.85;;;19.40;99.90;;;;;;5075303;28;20395;-84
2023/06/26 05:40:40;;;;;;;7.60;6.90;;;19.50;99.90;;;;;;5064979;28;20425;-85
2023/06/26 05:43:06;;;;;;;7.50;6.80;;;19.60;99.90;;;;;;5083195;28;20459;-85
2023/06/26 05:45:32;;;;;;;8.55;6.50;;;19.80;99.90;;;;;;5082829;28;20391;-84
2023/06/26 05:47:58;;;;;;;6.78;6.15;;;19.80;99.90;;;;;;5102735;28;20386;-85
2023/06/26 05:50:25;;;;;;;7.35;6.70;;;19.80;99.90;;;;;;5100462;28;20481;-85
2023/06/26 05:52:51;;;;;;;7.20;6.50;;;19.90;99.90;;;;;;5109872;28;20414;-84
2023/06/26 05:55:17;;;;;;;7.57;6.60;;;20.00;99.90;;;;;;5061392;28;20388;-84
2023/06/26 05:57:43;;;;;;;6.57;5.97;;;20.20;99.90;;;;;;5077238;28;20398;-84
2023/06/26 06:00:10;;;;;;;7.07;6.40;;;20.30;99.90;;;;;;5060482;28;20391;-85
2023/06/26 06:02:37;;;;;;;6.55;5.97;;;20.30;99.90;;;;;;5059132;28;20375;-85
2023/06/26 06:05:03;;;;;;;6.85;6.15;;;20.30;99.90;;;;;;5075726;28;20393;-85
2023/06/26 06:07:28;;;;;;;6.95;6.30;;;20.50;99.90;;;;;;5082291;28;20431;-85
2023/06/26 06:09:54;;;;;;;7.20;6.50;;;20.50;99.90;;;;;;5065188;28;20371;-85
2023/06/26 06:12:19;;;;;;;7.20;6.60;;;20.60;99.90;;;;;;5082016;28;20482;-85
2023/06/26 06:14:45;;;;;;;7.40;6.70;;;20.80;99.90;;;;;;5082162;28;20458;-85
2023/06/26 06:17:10;;;;;;;7.70;6.90;;;20.80;99.90;;;;;;5065455;28;20398;-85
2023/06/26 06:19:36;;;;;;;6.80;6.13;;;20.80;99.90;;;;;;5083614;28;20399;-85
2023/06/26 06:22:02;;;;;;;7.18;6.57;;;21.00;99.90;;;;;;5078606;22;20811;-84
2023/06/26 06:24:27;;;;;;;7.97;6.18;;;21.10;99.90;;;;;;5052643;28;20416;-85
2023/06/26 06:26:53;;;;;;;7.20;6.50;;;21.10;99.90;;;;;;5054699;28;20455;-85
2023/06/26 06:29:19;;;;;;;6.90;6.30;;;21.20;99.90;;;;;;5033774;28;20381;-85
2023/06/26 06:31:45;;;;;;;6.50;5.90;;;21.10;99.90;;;;;;5019369;28;20470;-85
2023/06/26 06:34:11;;;;;;;6.35;5.75;;;21.30;99.90;;;;;;5031175;28;20490;-85
2023/06/26 06:36:37;;;;;;;7.07;6.38;;;21.30;99.90;;;;;;5024125;28;20935;-85
2023/06/26 06:39:03;;;;;;;7.10;6.50;;;21.40;99.90;;;;;;5032747;28;20428;-85
2023/06/26 06:41:29;;;;;;;6.72;6.13;;;21.50;99.90;;;;;;5013781;28;20387;-85
2023/06/26 06:43:54;;;;;;;6.40;5.80;;;21.60;99.90;;;;;;5014916;28;20394;-85
2023/06/26 06:46:20;;;;;;;6.50;5.90;;;21.70;99.90;;;;;;5050392;28;20435;-85
2023/06/26 06:48:46;;;;;;;6.70;6.10;;;21.90;99.90;;;;;;5051550;28;20389;-86
2023/06/26 06:51:12;;;;;;;7.22;6.55;;;22.00;99.90;;;;;;5051344;28;20432;-85
2023/06/26 06:53:38;;;;;;;7.70;6.90;;;22.10;99.90;;;;;;5033142;28;20946;-85
2023/06/26 06:56:03;;;;;;;7.20;6.50;;;22.20;99.90;;;;;;5032758;28;20793;-85
2023/06/26 06:58:30;;;;;;;7.35;6.65;;;22.30;99.90;;;;;;5033729;28;20381;-86
2023/06/26 07:00:56;;;;;;;7.28;6.68;;;22.40;99.90;;;;;;5033131;28;20385;-85
2023/06/26 07:03:22;;;;;;;7.53;6.80;;;22.50;99.90;;;;;;5051003;28;20447;-85
2023/06/26 07:05:47;;;;;;;7.35;6.65;;;22.60;99.90;;;;;;5050248;28;20500;-85
2023/06/26 07:08:14;;;;;;;7.75;7.03;;;22.80;99.90;;;;;;5032319;28;20852;-85
2023/06/26 07:10:39;;;;;;;7.60;6.90;;;23.00;99.90;;;;;;5032449;28;20468;-85
2023/06/26 07:13:05;;;;;;;6.93;6.40;;;23.00;99.90;;;;;;5025001;28;20485;-85
2023/06/26 07:15:31;;;;;;;6.93;6.33;;;22.80;99.90;;;;;;5047905;28;20417;-85
2023/06/26 07:17:56;;;;;;;6.80;6.20;;;23.50;99.90;;;;;;5014990;28;20542;-85
2023/06/26 07:20:22;;;;;;;6.77;6.13;;;23.80;52.30;;;;;;5031547;28;20389;-84
2023/06/26 07:22:48;;;;;;;6.95;6.25;;;23.90;99.90;;;;;;5033061;28;20491;-85
2023/06/26 07:25:14;;;;;;;6.30;5.70;;;24.20;17.70;;;;;;5032791;28;20439;-86
2023/06/26 07:27:40;;;;;;;6.30;5.70;;;24.60;99.90;;;;;;5034801;28;20385;-86
2023/06/26 07:30:10;;;;;;;6.18;5.57;;;24.90;99.90;;;;;;5050620;28;20425;-86
2023/06/26 07:32:36;;;;;;;6.10;5.60;;;25.10;99.90;;;;;;5034236;28;20396;-86
2023/06/26 07:35:02;;;;;;;6.20;5.70;;;25.50;99.90;;;;;;5033617;28;20400;-85
2023/06/26 07:37:27;;;;;;;6.63;5.77;;;25.60;99.90;;;;;;5033379;28;20386;-86
2023/06/26 07:39:53;;;;;;;6.40;5.90;;;25.50;99.90;;;;;;5049909;28;20402;-86
2023/06/26 07:42:18;;;;;;;6.23;5.73;;;25.60;99.90;;;;;;5032387;28;20380;-86
2023/06/26 07:44:44;;;;;;;6.20;5.60;;;25.80;99.90;;;;;;5029638;28;20405;-86
2023/06/26 07:47:10;;;;;;;6.78;5.68;;;25.80;99.90;;;;;;5036294;28;20385;-85
2023/06/26 07:49:36;;;;;;;6.43;5.80;;;25.90;99.90;;;;;;5055919;28;20381;-86
2023/06/26 07:52:02;;;;;;;6.00;5.40;;;25.90;43.80;;;;;;5058783;28;20389;-85
2023/06/26 07:54:27;;;;;;;6.65;5.95;;;26.00;50.90;;;;;;5046436;28;20418;-83
2023/06/26 07:57:00;;;;;;;6.72;6.13;;;26.20;89.30;;;;;;5035824;28;20432;-82
2023/06/26 07:59:28;;;;;;;6.10;5.60;;;26.40;99.90;;;;;;5036881;28;20385;-85
2023/06/26 08:01:55;;;;;;;6.20;5.70;;;26.60;99.90;;;;;;5030793;28;20401;-85
2023/06/26 08:04:23;;;;;;;5.60;5.20;;;26.50;99.90;;;;;;5028931;28;20385;-85
2023/06/26 08:06:50;;;;;;;6.38;5.78;;;26.60;99.90;;;;;;5036012;28;20390;-85
2023/06/26 08:09:16;;;;;;;6.53;5.93;;;26.50;99.90;;;;;;5036775;28;20388;-85
2023/06/26 08:11:42;;;;;;;6.10;5.60;;;26.80;99.90;;;;;;5043520;28;20489;-84
2023/06/26 08:14:08;;;;;;;5.97;5.47;;;26.70;99.90;;;;;;5037037;28;20974;-85
2023/06/26 08:16:33;;;;;;;6.00;5.40;;;26.80;99.90;;;;;;5037197;28;20377;-86
2023/06/26 08:18:59;;;;;;;6.27;5.77;;;26.90;99.90;;;;;;5073087;28;20721;-84
2023/06/26 08:21:25;;;;;;;5.70;5.20;;;27.10;99.90;;;;;;5071905;28;20471;-85
2023/06/26 08:23:50;;;;;;;7.63;5.57;;;27.10;99.90;;;;;;5045771;28;20428;-85
2023/06/26 08:26:16;;;;;;;7.43;6.27;;;27.10;99.90;;;;;;5037553;28;20389;-85
2023/06/26 08:28:42;;;;;;;8.43;5.73;;;27.10;99.90;;;;;;5056780;28;20453;-86
2023/06/26 08:31:07;;;;;;;7.05;6.45;;;27.30;99.90;;;;;;5055421;28;20394;-85
2023/06/26 08:33:33;;;;;;;6.80;6.10;;;27.40;99.90;;;;;;5036979;28;20409;-86
2023/06/26 08:35:58;;;;;;;7.00;6.40;;;27.30;99.90;;;;;;5055507;28;20404;-86
2023/06/26 08:38:24;;;;;;;6.00;5.50;;;27.30;99.90;;;;;;5059183;28;20381;-85
2023/06/26 08:40:49;;;;;;;7.35;5.82;;;27.60;99.90;;;;;;5059742;28;20402;-85
2023/06/26 08:43:15;;;;;;;7.10;6.20;;;27.40;99.90;;;;;;5077517;28;20389;-85
2023/06/26 08:45:40;;;;;;;8.85;6.32;;;27.50;99.90;;;;;;5057774;28;20417;-83
2023/06/26 08:48:08;;;;;;;6.80;6.20;;;27.50;99.90;;;;;;5059741;28;20402;-86
2023/06/26 08:50:35;;;;;;;6.85;6.15;;;27.50;99.90;;;;;;5042409;28;20393;-85
2023/06/26 08:53:24;;;;;;;7.20;6.60;;;27.20;99.90;;;;;;5037634;28;20899;-85
2023/06/26 08:55:52;;;;;;;7.50;6.70;;;27.20;99.90;;;;;;5055555;28;20382;-85
2023/06/26 08:58:18;;;;;;;6.70;6.10;;;27.20;99.90;;;;;;5054692;28;20447;-85
2023/06/26 09:00:44;;;;;;;7.10;6.50;;;27.10;99.90;;;;;;5055886;28;20386;-86
2023/06/26 09:03:10;;;;;;;6.95;6.35;;;27.00;99.90;;;;;;5055775;28;20472;-85
2023/06/26 09:05:36;;;;;;;6.78;6.18;;;26.90;99.90;;;;;;5036965;28;20928;-85
2023/06/26 09:08:01;;;;;;;7.30;6.47;;;27.00;99.90;;;;;;5037767;28;20390;-85
2023/06/26 09:10:27;;;;;;;6.97;6.37;;;27.00;99.90;;;;;;5038172;28;20428;-85
2023/06/26 09:12:57;;;;;;;7.18;6.50;;;27.00;99.90;;;;;;5022274;28;20494;-85
2023/06/26 09:15:22;;;;;;;7.40;6.40;;;27.10;99.90;;;;;;5036386;28;20383;-85
2023/06/26 09:17:48;;;;;;;7.30;6.70;;;27.20;99.90;;;;;;5023539;28;20461;-85
2023/06/26 09:20:15;;;;;;;7.00;6.30;;;27.20;99.90;;;;;;5038104;28;20398;-86
2023/06/26 09:22:42;;;;;;;6.65;6.10;;;27.30;99.90;;;;;;5038988;28;20909;-84
2023/06/26 09:25:09;;;;;;;7.47;6.80;;;27.40;99.90;;;;;;5037422;28;20385;-84
2023/06/26 09:27:38;;;;;;;7.50;6.80;;;27.60;99.90;;;;;;5050316;28;20420;-85
2023/06/26 09:30:06;;;;;;;7.78;6.97;;;27.50;99.90;;;;;;5053092;28;20422;-85
2023/06/26 09:32:35;;;;;;;8.25;6.82;;;27.00;99.90;;;;;;5067309;28;20431;-85
2023/06/26 09:35:03;;;;;;;8.07;6.80;;;27.10;99.90;;;;;;5045903;28;20385;-84
2023/06/26 09:37:28;;;;;;;7.88;7.00;;;27.00;99.90;;;;;;5034314;28;20456;-86
2023/06/26 09:39:54;;;;;;;7.73;6.57;;;27.00;99.90;;;;;;5034751;28;20443;-85
2023/06/26 09:42:20;;;;;;;7.75;7.15;;;27.10;99.90;;;;;;5052532;28;20397;-85
2023/06/26 09:44:46;;;;;;;7.40;6.57;;;27.10;99.90;;;;;;5052976;28;20400;-85
2023/06/26 09:47:12;;;;;;;8.57;7.78;;;27.20;99.90;;;;;;5033407;28;20419;-84
2023/06/26 09:49:42;;;;;;;7.70;7.00;;;27.30;99.90;;;;;;5035149;28;20398;-85
2023/06/26 09:52:08;;;;;;;8.27;7.50;;;27.40;99.90;;;;;;5034493;28;20393;-86
2023/06/26 09:54:36;;;;;;;8.63;7.82;;;27.20;99.90;;;;;;5035219;28;20911;-85
2023/06/26 09:57:13;;;;;;;7.65;7.05;;;27.20;99.90;;;;;;5033719;28;20389;-85
2023/06/26 09:59:44;;;;;;;8.63;7.82;;;26.90;99.90;;;;;;5027875;28;20393;-85
2023/06/26 10:02:10;;;;;;;8.48;7.68;;;26.70;99.90;;;;;;5053085;28;20384;-84
2023/06/26 10:04:37;;;;;;;8.80;8.10;;;27.00;99.90;;;;;;5047011;28;20461;-83
2023/06/26 10:07:05;;;;;;;7.63;7.00;;;26.80;99.90;;;;;;5057532;28;20398;-84
2023/06/26 10:09:32;;;;;;;7.68;6.97;;;26.80;99.90;;;;;;5052682;28;20385;-85
2023/06/26 10:12:02;;;;;;;7.82;7.20;;;26.90;99.90;;;;;;5058746;28;21125;-85
2023/06/26 10:14:33;;;;;;;7.72;7.13;;;26.90;99.90;;;;;;5030721;28;20495;-84
2023/06/26 10:17:03;;;;;;;8.25;7.55;;;26.80;99.90;;;;;;5051033;28;20444;-82
2023/06/26 10:19:31;;;;;;;7.45;6.80;;;26.80;99.90;;;;;;5059153;28;20381;-84
2023/06/26 10:21:59;;;;;;;7.95;7.15;;;26.90;99.90;;;;;;5034297;28;20409;-83
2023/06/26 10:24:28;;;;;;;8.00;7.20;;;26.90;99.90;;;;;;5033219;28;20455;-85
2023/06/26 10:26:59;;;;;;;7.28;6.57;;;27.10;99.90;;;;;;5050975;28;20782;-84
2023/06/26 10:29:26;;;;;;;8.18;7.38;;;27.20;99.90;;;;;;5051909;28;20385;-85
2023/06/26 10:31:54;;;;;;;7.73;6.93;;;27.20;99.90;;;;;;5036366;28;20393;-84
2023/06/26 10:34:21;;;;;;;8.25;7.45;;;27.20;99.90;;;;;;5051588;28;20847;-85
2023/06/26 10:36:47;;;;;;;8.20;7.50;;;27.30;99.90;;;;;;5032205;28;20412;-85
2023/06/26 10:39:13;;;;;;;7.93;7.22;;;27.30;99.90;;;;;;5051682;28;20396;-84
2023/06/26 10:41:43;;;;;;;7.40;6.70;;;27.40;99.90;;;;;;5033060;28;21076;-82
2023/06/26 10:44:16;;;;;;;7.57;6.88;;;27.60;99.90;;;;;;5026629;28;20388;-82
2023/06/26 10:46:56;;;;;;;8.65;7.72;;;27.50;99.90;;;;;;5042832;28;20416;-81
2023/06/26 10:49:32;;;;;;;7.68;6.88;;;27.50;99.90;;;;;;5037345;28;20393;-82
2023/06/26 10:52:01;;;;;;;7.93;7.13;;;27.30;99.90;;;;;;5038767;28;20399;-83
2023/06/26 10:54:30;;;;;;;8.73;7.82;;;27.10;99.90;;;;;;5044818;28;20399;-82
2023/06/26 10:56:56;;;;;;;8.00;7.20;;;27.20;99.90;;;;;;5039478;28;20511;-82
2023/06/26 10:59:23;;;;;;;8.30;7.38;;;26.90;99.90;;;;;;5043855;28;20453;-82
2023/06/26 11:02:06;;;;;;;7.72;6.93;;;26.90;99.90;;;;;;5060302;28;20497;-82
2023/06/26 11:04:44;;;;;;;8.10;7.40;;;27.10;99.90;;;;;;5048689;28;20375;-82
2023/06/26 11:07:25;;;;;;;8.10;7.10;;;27.00;99.90;;;;;;5029530;28;20488;-85
2023/06/26 11:10:09;;;;;;;8.07;7.27;;;27.10;99.90;;;;;;5035016;28;20394;-82
2023/06/26 11:12:47;;;;;;;8.52;7.82;;;26.90;99.90;;;;;;5054112;28;20395;-84
2023/06/26 11:15:18;;;;;;;8.10;7.30;;;27.10;99.90;;;;;;5033371;28;20441;-84
2023/06/26 11:17:45;;;;;;;7.22;6.63;;;27.70;99.90;;;;;;5014172;28;20391;-84
2023/06/26 11:20:12;;;;;;;7.80;7.18;;;28.00;99.90;;;;;;5026351;28;20404;-84
2023/06/26 11:22:39;;;;;;;9.55;7.30;;;28.10;99.90;;;;;;5028723;28;20389;-83
2023/06/26 11:25:07;;;;;;;7.95;7.30;;;28.20;99.90;;;;;;5046932;28;20387;-84
2023/06/26 11:27:43;;;;;;;8.38;7.47;;;28.60;99.90;;;;;;5020250;28;20387;-82
2023/06/26 11:30:23;;;;;;;8.80;7.90;;;28.80;99.90;;;;;;5046545;28;20468;-83
2023/06/26 11:32:49;;;;;;;8.02;7.30;;;29.20;99.90;;;;;;5024606;28;20487;-84
2023/06/26 11:35:34;;;;;;;8.90;8.05;;;28.90;99.90;;;;;;5034449;28;20393;-85
2023/06/26 11:38:04;;;;;;;7.70;7.00;;;28.20;99.90;;;;;;5035681;28;20472;-84
2023/06/26 11:40:32;;;;;;;7.70;6.90;;;28.50;99.90;;;;;;5037995;28;20388;-84
2023/06/26 11:42:59;;;;;;;7.90;7.20;;;28.60;99.90;;;;;;5054309;28;20389;-83
2023/06/26 11:45:27;;;;;;;9.50;8.05;;;28.40;99.90;;;;;;5047226;28;20417;-84
2023/06/26 11:47:55;;;;;;;7.90;7.10;;;28.40;99.90;;;;;;5041774;28;20767;-84
2023/06/26 11:50:20;;;;;;;8.35;7.65;;;27.80;99.90;;;;;;5052264;28;21039;-85
2023/06/26 11:52:56;;;;;;;8.20;7.40;;;27.60;99.90;;;;;;5033862;28;20407;-85
2023/06/26 11:55:26;;;;;;;7.43;6.82;;;27.70;99.90;;;;;;5026935;28;20438;-83
2023/06/26 11:57:55;;;;;;;6.87;6.27;;;28.10;99.90;;;;;;5047902;28;20381;-84
2023/06/26 12:00:21;;;;;;;7.20;6.50;;;27.80;99.90;;;;;;5051019;28;20401;-83
2023/06/26 12:02:47;;;;;;;6.70;6.10;;;27.40;99.90;;;;;;5031033;28;20395;-79
2023/06/26 12:05:14;;;;;;;6.60;6.00;;;27.20;99.90;;;;;;5030999;28;20393;-80
2023/06/26 12:07:43;;;;;;;7.47;6.78;;;27.20;99.90;;;;;;5041151;28;20471;-80
2023/06/26 12:10:11;;;;;;;6.82;6.22;;;26.10;99.90;;;;;;5025956;28;20391;-82
2023/06/26 12:12:37;;;;;;;6.90;6.30;;;26.90;99.90;;;;;;5047970;28;20391;-80
2023/06/26 12:15:05;;;;;;;7.28;6.25;;;27.00;99.90;;;;;;5038102;28;20393;-81
2023/06/26 12:17:30;;;;;;;6.10;5.60;;;27.10;99.90;;;;;;5040152;28;20385;-82
2023/06/26 12:19:56;;;;;;;6.65;5.95;;;27.00;99.90;;;;;;5046575;28;20411;-82
2023/06/26 12:22:22;;;;;;;6.97;6.37;;;26.90;99.90;;;;;;5072857;28;20393;-82
2023/06/26 12:24:48;;;;;;;7.00;6.40;;;26.70;99.90;;;;;;5058564;28;20877;-83
2023/06/26 12:27:15;;;;;;;7.13;6.43;;;26.40;99.90;;;;;;5058161;28;20406;-82
2023/06/26 12:29:46;;;;;;;9.20;6.43;;;26.10;99.90;;;;;;5033568;28;20423;-83
2023/06/26 12:32:14;;;;;;;7.22;6.53;;;26.50;99.90;;;;;;5038328;28;20382;-81
2023/06/26 12:34:40;;;;;;;7.22;6.60;;;26.40;99.90;;;;;;5027183;28;20404;-81
2023/06/26 12:37:08;;;;;;;7.65;6.95;;;25.80;99.90;;;;;;5024591;28;20421;-82
2023/06/26 12:39:48;;;;;;;7.45;6.75;;;26.10;99.90;;;;;;5046170;28;20400;-81
2023/06/26 12:42:16;;;;;;;6.30;5.70;;;27.30;99.90;;;;;;5043464;28;20394;-81
2023/06/26 12:44:42;;;;;;;6.90;6.20;;;27.40;99.90;;;;;;5024638;28;20516;-81
2023/06/26 12:47:08;;;;;;;6.20;5.70;;;27.00;99.90;;;;;;5046310;28;20426;-82